Detalii statie VALKAPA [00001D0A]

Toti senzorii

Date Temperatura solului [C]Precipitatii [mm]Voltaj baterie [mV]Leaf Wetness [Min]HC Air temperature [C]HC Relative humidity [%]Punctul de roua [C]
medieminmaxsumaultimatimpmedieminmaxmediemediemin
2018-10-13 16:00:00 0 7236 23.47 23.19 23.74 33.6 6.2 5.8
2018-10-13 17:00:00 0 7206 22.59 21.78 23.21 34.04 5.7 5.4
2018-10-13 18:00:00 0 6952 19.88 18.7 21.55 43.35 6.8 6.2
2018-10-13 19:00:00 0 6914 17.1 15.98 18.19 54 7.4 7.2
2018-10-13 20:00:00 0 6884 16.14 15.87 16.43 56.15 7.2 7
2018-10-13 21:00:00 0 6884 14.35 11.21 16.38 60.04 6.4 5.6
2018-10-13 22:00:00 0 6864 11.11 9.52 13.98 78.03 7.1 5.9
2018-10-13 23:00:00 0 6864 14 12.62 14.73 59.84 6.1 5.8
2018-10-14 00:00:00 0 6864 13.31 12.93 13.69 61.63 5.9 5.7
2018-10-14 01:00:00 0 6844 11.65 9.3 13.58 67.21 5.5 5.4
2018-10-14 02:00:00 0 6844 8.82 7.7 10.77 80.69 5.5 4.9
2018-10-14 03:00:00 0 6826 9.41 7.37 10.06 78.9 5.7 5.4
2018-10-14 04:00:00 0 6816 7.54 6.03 9.53 88.33 5.5 5.3
2018-10-14 05:00:00 0 6806 6.17 5.18 7.12 95.83 5.4 4.8
2018-10-14 06:00:00 0 6786 5.36 4.65 6.05 99.67 5.2 4.5
2018-10-14 07:00:00 0 6776 6.25 5.48 6.93 97.99 5.8 5
2018-10-14 08:00:00 0 6816 6.18 5.04 8.43 97.4 5.7 4.9
2018-10-14 09:00:00 0 6962 10.79 8.86 12.74 75.88 6.5 6.2
2018-10-14 10:00:00 0 7226 15.32 13.17 17.24 56.43 6.4 6.2
2018-10-14 11:00:00 0 7246 18.05 17.03 19.1 46.13 6 5.8
2018-10-14 12:00:00 0 7246 20.09 19.28 20.77 40.15 5.9 5.6
2018-10-14 13:00:00 0 7236 21.44 20.47 22.04 34.26 4.8 4
2018-10-14 14:00:00 0 7236 22.19 21.44 23.4 29.01 3.1 2.1
2018-10-14 15:00:00 0 7236 22.77 22.28 23.18 23.72 0.6 -2
2018-10-14 16:00:00 0 7236 23.08 22.77 23.54 19.37 -1.8 -2.8
2018-10-14 17:00:00 0 7236 22.2 21.42 22.79 21.19 -1.3 -2
2018-10-14 18:00:00 0 6952 19.69 18.1 21.14 25.96 -0.6 -0.9
2018-10-14 19:00:00 0 6914 16.76 14.83 17.82 32.79 0 -0.5
2018-10-14 20:00:00 0 6894 16.12 15.27 17.19 33.55 -0.1 -0.7
2018-10-14 21:00:00 0 6884 15.22 14.52 16.07 33.94 -0.7 -1.1
2018-10-14 22:00:00 0 6884 13.68 12.18 14.52 36.89 -0.9 -1.1
2018-10-14 23:00:00 0 6864 11.95 11.61 12.46 42.09 -0.6 -0.8
2018-10-15 00:00:00 0 6864 9.79 8.39 11.41 50.04 -0.2 -0.6
2018-10-15 01:00:00 0 6844 8.19 7.06 9.04 56.78 0 -0.3
2018-10-15 02:00:00 0 6844 7.76 5.99 9.16 58.58 0 -0.4
2018-10-15 03:00:00 0 6826 6.57 5.56 8.16 63.87 0 -0.4
2018-10-15 04:00:00 0 6816 7.49 5.63 9.14 58.17 -0.3 -0.8
2018-10-15 05:00:00 0 6806 8.83 8.49 9.24 50.79 -0.8 -1.1
2018-10-15 06:00:00 0 6796 8.53 8.29 8.8 51.21 -1 -1.1
2018-10-15 07:00:00 0 6786 8.36 8.01 8.75 51.37 -1.1 -1.3
2018-10-15 08:00:00 0 6844 9.1 8.48 9.81 49.59 -0.9 -1.3
2018-10-15 09:00:00 0 6962 11.61 10.08 13.02 45.76 0.1 -0.4
2018-10-15 10:00:00 0 7236 14.45 13.21 15.52 38.21 0.1 -0.2
2018-10-15 11:00:00 0 7246 16.88 15.71 18.18 32.31 0 -0.4
2018-10-15 12:00:00 0 7246 18.85 18.23 19.65 28.39 0 -0.6
2018-10-15 13:00:00 0 7236 20.26 19.01 21.03 25.59 -0.2 -0.8
2018-10-15 14:00:00 0 7236 21.63 20.56 22.81 23.69 -0.2 -0.7
2018-10-15 15:00:00 0 7236 22.45 22.02 22.92 21.69 -0.8 -1.3